Time;durP1;ratioP1;P1;durP2;ratioP2;P2;SDS_P1;SDS_P2;PMS_P1;PMS_P2;Temp;Humidity;BMP_temperature;BMP_pressure;BME280_temperature;BME280_humidity;BME280_pressure;Samples;Min_cycle;Max_cycle;Signal;HPM_P1;HPM_P2
2021/01/13 00:00:32;;;;;;;18.30;11.48;;;;;;;-2.76;67.08;99732.66;1773148;79;21055;-66
2021/01/13 00:03:00;;;;;;;16.77;11.30;;;;;;;-2.77;67.05;99712.43;1740727;81;21089;-66
2021/01/13 00:05:27;;;;;;;17.45;12.73;;;;;;;-2.78;67.16;99704.73;1762469;80;21109;-66
2021/01/13 00:07:55;;;;;;;18.65;13.03;;;;;;;-2.78;67.19;99719.80;1762452;80;21049;-66
2021/01/13 00:10:25;;;;;;;20.62;13.90;;;;;;;-2.77;67.24;99726.64;1766248;80;22090;-66
2021/01/13 00:12:52;;;;;;;17.87;12.33;;;;;;;-2.74;67.29;99740.74;1764960;80;21086;-66
2021/01/13 00:15:20;;;;;;;17.80;12.55;;;;;;;-2.72;67.34;99741.52;1757639;80;21079;-66
2021/01/13 00:17:49;;;;;;;14.93;10.08;;;;;;;-2.73;67.33;99728.66;1759988;80;21165;-66
2021/01/13 00:20:17;;;;;;;16.05;10.78;;;;;;;-2.75;67.35;99718.83;1761995;81;21134;-66
2021/01/13 00:22:46;;;;;;;17.95;12.75;;;;;;;-2.75;67.45;99719.67;1776912;80;22080;-68
2021/01/13 00:25:17;;;;;;;14.53;9.73;;;;;;;-2.73;67.46;99726.08;1762088;80;21066;-65
2021/01/13 00:27:46;;;;;;;17.98;12.13;;;;;;;-2.72;67.48;99721.30;1760765;81;21077;-65
2021/01/13 00:30:17;;;;;;;19.45;12.03;;;;;;;-2.73;67.41;99714.45;1760296;81;21066;-67
2021/01/13 00:32:45;;;;;;;16.90;11.48;;;;;;;-2.74;67.52;99701.97;1747178;81;21150;-65
2021/01/13 00:35:14;;;;;;;19.57;14.58;;;;;;;-2.73;67.60;99696.35;1761864;81;22076;-65
2021/01/13 00:37:42;;;;;;;18.62;13.65;;;;;;;-2.73;67.58;99688.14;1761911;80;21059;-65
2021/01/13 00:40:11;;;;;;;18.73;12.85;;;;;;;-2.73;67.66;99676.52;1761966;81;21124;-65
2021/01/13 00:42:48;;;;;;;17.35;12.78;;;;;;;-2.72;67.84;99677.36;1762057;80;21140;-67
2021/01/13 00:45:19;;;;;;;20.25;14.33;;;;;;;-2.73;67.90;99679.10;1764370;80;21102;-65
2021/01/13 00:47:51;;;;;;;21.45;14.80;;;;;;;-2.73;67.86;99666.63;1777499;80;22061;-65
2021/01/13 00:50:20;;;;;;;17.32;11.25;;;;;;;-2.72;67.91;99650.22;1763810;80;21113;-66
2021/01/13 00:52:50;;;;;;;18.12;13.38;;;;;;;-2.71;68.08;99627.34;1746068;81;21567;-67
2021/01/13 00:55:18;;;;;;;21.95;14.75;;;;;;;-2.72;68.15;99625.66;1760420;80;21556;-66
2021/01/13 00:57:52;;;;;;;21.97;15.35;;;;;;;-2.73;68.26;99611.06;1790692;80;21442;-66
2021/01/13 01:00:21;;;;;;;13.98;9.48;;;;;;;-2.72;68.42;99612.74;1773990;80;22064;-66
2021/01/13 01:02:50;;;;;;;22.70;12.93;;;;;;;-2.72;68.47;99604.53;1775603;79;22708;-66
2021/01/13 01:05:21;;;;;;;21.77;13.55;;;;;;;-2.74;68.47;99607.64;1773080;79;21118;-68
2021/01/13 01:07:48;;;;;;;22.60;14.83;;;;;;;-2.74;68.51;99627.02;1842715;77;21107;-66
2021/01/13 01:10:20;;;;;;;20.60;14.18;;;;;;;-2.72;68.55;99617.91;1817730;77;21064;-66
2021/01/13 01:12:48;;;;;;;17.17;11.57;;;;;;;-2.74;68.62;99605.05;1814651;78;22041;-66
2021/01/13 01:15:16;;;;;;;22.02;14.13;;;;;;;-2.77;68.64;99587.08;1817463;77;21143;-67
2021/01/13 01:17:45;;;;;;;23.02;13.85;;;;;;;-2.80;68.66;99585.05;1838072;77;21064;-66
2021/01/13 01:20:14;;;;;;;19.82;13.93;;;;;;;-2.82;68.74;99577.36;1839237;77;21052;-67
2021/01/13 01:22:57;;;;;;;21.77;15.70;;;;;;;-2.82;68.77;99584.27;1817932;77;21102;-65
2021/01/13 01:25:28;;;;;;;19.82;12.18;;;;;;;-2.80;68.79;99595.38;1795492;77;27449;-68
2021/01/13 01:27:59;;;;;;;22.15;14.65;;;;;;;-2.80;68.86;99588.47;1838588;77;21080;-65
2021/01/13 01:30:29;;;;;;;16.27;11.38;;;;;;;-2.80;68.89;99579.88;1820694;77;21131;-65
2021/01/13 01:32:58;;;;;;;21.75;14.07;;;;;;;-2.78;68.91;99588.44;1833539;77;21123;-65
2021/01/13 01:35:26;;;;;;;19.65;13.93;;;;;;;-2.78;68.91;99584.11;1820646;77;21056;-65
2021/01/13 01:37:55;;;;;;;21.05;14.35;;;;;;;-2.77;68.89;99583.66;1811962;79;21962;-65
2021/01/13 01:40:25;;;;;;;19.27;13.85;;;;;;;-2.77;68.88;99577.20;1793404;77;21081;-65
2021/01/13 01:42:54;;;;;;;16.12;11.73;;;;;;;-2.79;68.86;99573.38;1755973;79;21059;-65
2021/01/13 01:45:28;;;;;;;18.05;13.75;;;;;;;-2.81;68.87;99555.78;1759519;81;21078;-66
2021/01/13 01:48:23;;;;;;;20.92;13.80;;;;;;;-2.83;68.88;99558.03;1774191;79;21137;-65
2021/01/13 01:50:59;;;;;;;26.87;15.70;;;;;;;-2.82;68.88;99568.31;1807385;77;21131;-65
2021/01/13 01:53:58;;;;;;;21.65;15.13;;;;;;;-2.81;68.90;99569.15;1819699;77;21632;-65
2021/01/13 01:56:38;;;;;;;22.80;15.45;;;;;;;-2.82;68.82;99554.09;1826681;77;21073;-67
2021/01/13 01:59:15;;;;;;;20.02;13.88;;;;;;;-2.83;68.91;99538.66;1837791;77;21056;-65
2021/01/13 02:01:47;;;;;;;20.85;15.00;;;;;;;-2.83;68.96;99527.02;1824795;77;21135;-65
2021/01/13 02:04:30;;;;;;;21.25;14.43;;;;;;;-2.84;69.01;99520.17;1833657;77;21997;-65
2021/01/13 02:07:10;;;;;;;18.15;13.25;;;;;;;-2.86;69.07;99517.66;1809227;77;21103;-65
2021/01/13 02:09:37;;;;;;;22.52;15.45;;;;;;;-2.84;69.19;99521.47;1820511;77;21141;-65
2021/01/13 02:12:13;;;;;;;21.37;14.93;;;;;;;-2.85;69.22;99515.91;1821235;77;21327;-65
2021/01/13 02:14:43;;;;;;;23.20;15.23;;;;;;;-2.84;69.27;99524.89;1821080;77;21099;-65
2021/01/13 02:17:12;;;;;;;21.95;14.93;;;;;;;-2.84;69.27;99533.94;1820163;77;21947;-65
2021/01/13 02:19:52;;;;;;;19.10;13.85;;;;;;;-2.82;69.31;99536.01;1852403;77;21111;-65
2021/01/13 02:22:26;;;;;;;23.18;16.45;;;;;;;-2.81;69.28;99536.84;1820949;77;21135;-67
2021/01/13 02:25:06;;;;;;;21.73;15.13;;;;;;;-2.83;69.14;99539.95;1818817;77;21079;-68
2021/01/13 02:28:09;;;;;;;24.43;16.80;;;;;;;-2.82;69.18;99532.58;1826472;77;21071;-66
2021/01/13 02:30:57;;;;;;;25.25;17.32;;;;;;;-2.82;69.17;99519.66;1833004;77;22055;-66
2021/01/13 02:33:32;;;;;;;23.05;15.53;;;;;;;-2.82;69.04;99506.74;1780404;78;21045;-67
2021/01/13 02:36:20;;;;;;;24.45;15.63;;;;;;;-2.83;68.98;99503.31;1810542;77;21178;-65
2021/01/13 02:38:52;;;;;;;22.75;15.55;;;;;;;-2.86;68.97;99479.35;1827339;77;21115;-67
2021/01/13 02:41:27;;;;;;;25.40;16.37;;;;;;;-2.91;68.99;99473.05;1777292;79;21082;-67
2021/01/13 02:43:58;;;;;;;24.98;16.80;;;;;;;-2.92;69.08;99475.25;1780434;79;21987;-65
2021/01/13 02:47:00;;;;;;;24.27;17.07;;;;;;;-2.91;69.14;99476.93;1756105;79;21126;-67
2021/01/13 02:49:39;;;;;;;22.15;16.05;;;;;;;-2.93;69.17;99474.41;1744527;81;21131;-67
2021/01/13 02:52:19;;;;;;;18.73;12.13;;;;;;;-2.93;69.25;99474.41;1772199;79;21550;-66
2021/01/13 02:54:57;;;;;;;20.02;14.33;;;;;;;-2.91;69.30;99464.84;1789456;79;21392;-66
2021/01/13 02:57:28;;;;;;;20.95;14.25;;;;;;;-2.92;69.24;99459.30;1755032;80;21895;-65
2021/01/13 02:59:58;;;;;;;17.50;12.50;;;;;;;-2.92;69.26;99448.95;1777885;80;21096;-65
2021/01/13 03:02:37;;;;;;;23.95;16.50;;;;;;;-2.93;69.21;99439.53;1778111;79;21492;-66
2021/01/13 03:05:07;;;;;;;20.48;14.90;;;;;;;-2.94;69.12;99427.97;1754372;79;21060;-65
2021/01/13 03:07:36;;;;;;;18.35;12.25;;;;;;;-2.97;69.21;99414.73;1804186;79;21500;-65
2021/01/13 03:10:11;;;;;;;20.95;15.00;;;;;;;-2.96;69.34;99403.94;1786272;79;21813;-65
2021/01/13 03:12:40;;;;;;;19.87;13.98;;;;;;;-2.94;69.26;99396.97;1796015;79;21129;-65
2021/01/13 03:15:10;;;;;;;18.67;13.95;;;;;;;-2.94;69.32;99400.84;1787413;79;21129;-67
2021/01/13 03:17:52;;;;;;;25.05;17.07;;;;;;;-2.96;69.35;99408.66;1789643;79;21136;-65
2021/01/13 03:20:41;;;;;;;23.10;15.75;;;;;;;-2.98;69.39;99407.05;1774353;79;21112;-65
2021/01/13 03:23:36;;;;;;;21.37;14.18;;;;;;;-2.99;69.45;99410.08;1743891;82;21555;-65
2021/01/13 03:26:05;;;;;;;19.60;12.75;;;;;;;-2.98;69.57;99414.80;1756723;79;21249;-65
2021/01/13 03:28:39;;;;;;;16.50;11.60;;;;;;;-3.00;69.86;99415.28;1758377;80;21472;-65
2021/01/13 03:31:07;;;;;;;22.70;16.50;;;;;;;-3.04;70.10;99401.66;1740207;80;21584;-66
2021/01/13 03:34:11;;;;;;;18.95;13.53;;;;;;;-3.05;70.25;99398.69;1782427;79;21070;-67
2021/01/13 03:39:41;;;;;;;18.80;12.93;;;;;;;-3.09;70.49;99389.81;1759009;80;21149;-67
2021/01/13 03:42:16;;;;;;;20.27;14.50;;;;;;;-3.09;70.63;99394.52;1785345;79;21374;-68
2021/01/13 03:44:46;;;;;;;20.65;16.10;;;;;;;-3.07;70.60;99408.24;1785885;80;21137;-67
2021/01/13 03:47:42;;;;;;;22.85;15.88;;;;;;;-3.05;70.54;99406.44;1804564;79;21569;-67
2021/01/13 03:50:29;;;;;;;21.10;14.15;;;;;;;-3.04;70.47;99388.73;1771574;79;22147;-68
2021/01/13 03:53:08;;;;;;;19.85;13.80;;;;;;;-3.02;70.38;99388.67;1765817;80;21518;-67
2021/01/13 03:55:38;;;;;;;26.12;16.50;;;;;;;-3.05;70.17;99379.77;1776494;80;21120;-67
2021/01/13 03:58:38;;;;;;;22.25;15.48;;;;;;;-3.08;70.21;99377.31;1755436;80;21147;-67
2021/01/13 04:01:51;;;;;;;23.50;15.00;;;;;;;-3.05;70.26;99357.81;1768468;80;21189;-67
2021/01/13 04:05:14;;;;;;;22.15;15.38;;;;;;;-3.04;70.24;99351.28;1780243;80;22087;-67
2021/01/13 04:07:43;;;;;;;22.80;15.65;;;;;;;-3.04;70.24;99352.58;1763081;80;21445;-69
2021/01/13 04:10:12;;;;;;;24.57;14.33;;;;;;;-3.05;70.26;99335.40;1752320;80;21042;-67
2021/01/13 04:12:48;;;;;;;22.93;15.53;;;;;;;-3.05;70.26;99327.65;1771596;80;21062;-67
2021/01/13 04:15:18;;;;;;;22.42;15.95;;;;;;;-3.06;70.15;99314.80;1775794;79;21204;-67
2021/01/13 04:17:47;;;;;;;22.52;14.35;;;;;;;-3.08;70.20;99320.03;1777431;80;22958;-67
2021/01/13 04:20:16;;;;;;;27.40;17.10;;;;;;;-3.06;70.26;99318.22;1736132;81;21157;-67
2021/01/13 04:22:47;;;;;;;25.10;16.60;;;;;;;-3.04;70.23;99316.41;1726121;81;21180;-69
2021/01/13 04:25:17;;;;;;;25.72;16.67;;;;;;;-3.01;70.31;99317.56;1723199;82;21141;-67
2021/01/13 04:27:46;;;;;;;21.25;14.45;;;;;;;-2.99;70.32;99317.08;1761968;81;21155;-67
2021/01/13 04:30:16;;;;;;;21.37;14.68;;;;;;;-2.97;70.28;99320.43;1748687;81;22983;-67
2021/01/13 04:32:45;;;;;;;25.02;15.10;;;;;;;-2.99;70.26;99317.50;1709776;83;21124;-67
2021/01/13 04:35:14;;;;;;;25.95;14.93;;;;;;;-2.97;70.26;99311.84;1782924;78;21141;-67
2021/01/13 04:37:42;;;;;;;21.00;12.47;;;;;;;-2.97;70.28;99308.81;1780625;79;21129;-67
2021/01/13 04:40:28;;;;;;;19.75;13.75;;;;;;;-2.96;70.27;99296.27;1803069;78;21081;-67
2021/01/13 04:43:11;;;;;;;19.10;12.73;;;;;;;-2.97;70.26;99293.76;1804901;79;22053;-67
2021/01/13 04:45:42;;;;;;;26.25;16.62;;;;;;;-3.01;70.31;99290.45;1810139;79;21050;-67
2021/01/13 04:48:13;;;;;;;22.35;15.85;;;;;;;-3.03;70.41;99289.67;1745684;81;21149;-68
2021/01/13 04:50:47;;;;;;;23.62;16.60;;;;;;;-3.05;70.45;99283.73;1749255;81;21073;-69
2021/01/13 04:53:21;;;;;;;22.55;16.07;;;;;;;-3.07;70.56;99280.39;1761730;81;21062;-68
2021/01/13 04:55:54;;;;;;;20.57;13.50;;;;;;;-3.09;70.67;99284.75;1748811;81;21828;-66
2021/01/13 04:58:53;;;;;;;20.90;14.15;;;;;;;-3.08;70.77;99286.91;1788874;79;21142;-67
2021/01/13 05:01:59;;;;;;;21.90;16.05;;;;;;;-3.07;70.94;99289.42;1798560;79;21468;-67
2021/01/13 05:04:48;;;;;;;27.45;18.07;;;;;;;-3.09;71.01;99284.75;1768076;79;21109;-67
2021/01/13 05:07:39;;;;;;;25.08;16.90;;;;;;;-3.12;71.38;99264.67;1798523;79;21138;-67
2021/01/13 05:10:15;;;;;;;34.45;22.25;;;;;;;-3.15;71.68;99259.65;1774465;79;22148;-67
2021/01/13 05:12:55;;;;;;;30.48;20.62;;;;;;;-3.16;72.01;99269.14;1809025;79;21161;-68
2021/01/13 05:15:31;;;;;;;24.92;17.35;;;;;;;-3.18;72.36;99266.63;1761405;81;21073;-68
2021/01/13 05:18:08;;;;;;;24.85;17.37;;;;;;;-3.20;72.67;99267.56;1751104;81;21058;-65
2021/01/13 05:20:43;;;;;;;21.90;15.23;;;;;;;-3.22;72.96;99261.63;1735203;82;21154;-65
2021/01/13 05:23:12;;;;;;;19.57;13.20;;;;;;;-3.23;73.31;99258.21;1760946;81;22108;-66
2021/01/13 05:25:50;;;;;;;23.92;17.00;;;;;;;-3.27;73.54;99258.41;1747628;81;21093;-65
2021/01/13 05:28:22;;;;;;;28.27;19.50;;;;;;;-3.29;73.74;99265.36;1760703;81;21077;-66
2021/01/13 05:30:52;;;;;;;27.05;19.80;;;;;;;-3.29;73.95;99267.94;1765193;81;21058;-66
2021/01/13 05:33:27;;;;;;;31.25;21.37;;;;;;;-3.29;74.25;99273.11;1765810;81;21070;-66
2021/01/13 05:35:57;;;;;;;27.80;19.12;;;;;;;-3.31;74.46;99264.13;1748588;81;22139;-66
2021/01/13 05:38:52;;;;;;;25.92;18.67;;;;;;;-3.32;74.66;99253.87;1734328;81;21097;-64
2021/01/13 05:41:21;;;;;;;31.80;22.80;;;;;;;-3.30;74.82;99257.23;1762152;81;21085;-67
2021/01/13 05:43:52;;;;;;;32.08;23.02;;;;;;;-3.32;75.15;99252.58;1735202;81;21501;-68
2021/01/13 05:46:20;;;;;;;31.68;21.02;;;;;;;-3.34;75.31;99253.10;1733713;81;21063;-67
2021/01/13 05:48:50;;;;;;;25.88;17.65;;;;;;;-3.37;75.49;99257.95;1720518;82;22932;-68
2021/01/13 05:51:27;;;;;;;30.90;20.10;;;;;;;-3.37;75.65;99260.53;1729814;81;21089;-68
2021/01/13 05:53:56;;;;;;;28.12;19.50;;;;;;;-3.37;75.82;99267.44;1762688;81;21379;-67
2021/01/13 05:56:25;;;;;;;29.32;20.17;;;;;;;-3.41;75.94;99258.95;1802868;78;21146;-67
2021/01/13 05:59:01;;;;;;;29.87;21.82;;;;;;;-3.43;76.09;99245.28;1787602;79;21141;-69
2021/01/13 06:01:48;;;;;;;28.47;20.50;;;;;;;-3.42;76.24;99246.12;1794989;79;22045;-69
2021/01/13 06:04:17;;;;;;;44.67;30.95;;;;;;;-3.47;76.40;99242.45;1782741;79;21145;-68
2021/01/13 06:06:59;;;;;;;34.83;24.32;;;;;;;-3.47;76.49;99247.61;1803454;79;21126;-70
2021/01/13 06:09:28;;;;;;;41.35;27.75;;;;;;;-3.44;76.62;99241.02;1784281;79;21169;-68
2021/01/13 06:11:56;;;;;;;37.40;25.00;;;;;;;-3.42;76.75;99243.53;1790012;79;21390;-70
2021/01/13 06:14:26;;;;;;;35.23;22.87;;;;;;;-3.41;76.82;99231.84;1792188;79;21882;-70
2021/01/13 06:16:55;;;;;;;31.35;19.87;;;;;;;-3.41;76.94;99231.84;1737622;81;21129;-69
2021/01/13 06:19:26;;;;;;;28.00;19.30;;;;;;;-3.41;77.04;99232.30;1737299;81;21855;-71
2021/01/13 06:22:08;;;;;;;33.75;21.80;;;;;;;-3.45;77.12;99227.73;1726902;81;21240;-69
2021/01/13 06:24:37;;;;;;;33.50;21.57;;;;;;;-3.45;77.21;99231.59;1783346;79;21074;-68
2021/01/13 06:27:19;;;;;;;29.10;18.45;;;;;;;-3.46;77.27;99224.31;1793058;79;22120;-65
2021/01/13 06:30:02;;;;;;;32.17;19.65;;;;;;;-3.42;77.39;99221.59;1805081;79;21349;-67
2021/01/13 06:32:36;;;;;;;22.35;15.32;;;;;;;-3.47;77.40;99216.18;1773730;79;21446;-70
2021/01/13 06:35:26;;;;;;;27.52;19.52;;;;;;;-3.44;77.51;99222.11;1801911;79;21090;-71
2021/01/13 06:37:53;;;;;;;28.47;19.27;;;;;;;-3.41;77.56;99216.81;1796299;79;21081;-68
2021/01/13 06:40:23;;;;;;;27.87;18.98;;;;;;;-3.43;77.55;99212.17;1760282;79;21977;-69
2021/01/13 06:42:51;;;;;;;28.92;19.20;;;;;;;-3.48;77.63;99209.77;1806605;79;21073;-70
2021/01/13 06:45:31;;;;;;;26.90;18.23;;;;;;;-3.50;77.69;99211.58;1780754;79;21063;-68
2021/01/13 06:47:59;;;;;;;28.60;19.85;;;;;;;-3.47;77.74;99207.59;1780279;79;21079;-69
2021/01/13 06:50:36;;;;;;;27.48;17.40;;;;;;;-3.46;77.80;99203.66;1805842;79;21177;-69
2021/01/13 06:53:11;;;;;;;22.55;15.28;;;;;;;-3.43;77.85;99192.36;1808262;79;22023;-69
2021/01/13 06:55:41;;;;;;;23.42;15.85;;;;;;;-3.40;77.93;99185.77;1740291;81;21170;-69
2021/01/13 06:58:12;;;;;;;24.75;15.88;;;;;;;-3.43;77.87;99192.36;1765128;80;21157;-68
2021/01/13 07:00:41;;;;;;;23.95;16.02;;;;;;;-3.44;77.90;99183.39;1807313;79;21860;-68
2021/01/13 07:03:31;;;;;;;20.15;13.53;;;;;;;-3.42;77.96;99186.74;1770726;80;21163;-69
2021/01/13 07:06:10;;;;;;;21.05;14.07;;;;;;;-3.43;78.02;99186.36;1803335;79;22979;-68
2021/01/13 07:08:38;;;;;;;21.68;14.83;;;;;;;-3.42;78.09;99184.16;1763927;79;21153;-69
2021/01/13 07:11:09;;;;;;;21.73;14.00;;;;;;;-3.41;78.11;99178.09;1765232;81;21137;-69
2021/01/13 07:13:40;;;;;;;22.17;14.47;;;;;;;-3.39;78.17;99174.53;1808394;79;21154;-69
2021/01/13 07:16:08;;;;;;;15.13;10.95;;;;;;;-3.34;78.28;99166.61;1805703;79;21134;-70
2021/01/13 07:18:38;;;;;;;19.32;13.32;;;;;;;-3.36;78.27;99166.69;1774435;79;22057;-70
2021/01/13 07:21:11;;;;;;;19.82;13.18;;;;;;;-3.36;78.23;99165.39;1786140;79;21161;-69
2021/01/13 07:23:46;;;;;;;15.72;11.43;;;;;;;-3.41;78.23;99148.41;1780880;79;21419;-67
2021/01/13 07:26:14;;;;;;;18.48;12.53;;;;;;;-3.39;78.31;99148.72;1765709;79;21189;-69
2021/01/13 07:28:43;;;;;;;15.60;10.50;;;;;;;-3.35;78.34;99136.09;1779613;79;21117;-68
2021/01/13 07:31:11;;;;;;;17.25;10.70;;;;;;;-3.30;78.35;99138.45;1735721;82;21946;-68
2021/01/13 07:33:41;;;;;;;37.65;18.80;;;;;;;-3.28;78.35;99140.52;1695966;82;21091;-67
2021/01/13 07:36:13;;;;;;;26.15;14.30;;;;;;;-3.26;78.37;99138.73;1720126;81;21172;-67
2021/01/13 07:38:43;;;;;;;16.70;10.48;;;;;;;-3.22;78.44;99141.55;1748801;81;21061;-69
2021/01/13 07:41:12;;;;;;;25.97;14.58;;;;;;;-3.16;78.36;99132.27;1735925;81;21089;-69
2021/01/13 07:44:16;;;;;;;15.98;11.43;;;;;;;-3.20;78.31;99131.54;1704460;84;22029;-69
2021/01/13 07:46:51;;;;;;;19.15;11.88;;;;;;;-3.19;78.24;99120.75;1743989;81;21188;-68
2021/01/13 07:49:21;;;;;;;24.98;13.90;;;;;;;-3.22;78.22;99119.16;1679728;83;21082;-69
2021/01/13 07:51:54;;;;;;;21.45;13.18;;;;;;;-3.20;78.22;99111.33;1804553;79;21057;-69
2021/01/13 07:54:33;;;;;;;26.73;15.83;;;;;;;-3.21;78.14;99109.66;1750712;80;21632;-69
2021/01/13 07:57:06;;;;;;;44.73;25.02;;;;;;;-3.29;78.11;99111.28;1728817;83;22071;-68
2021/01/13 07:59:45;;;;;;;16.48;11.18;;;;;;;-3.31;78.19;99106.64;1812039;79;21109;-69
2021/01/13 08:02:27;;;;;;;15.60;9.95;;;;;;;-3.26;78.23;99097.42;1790369;79;21503;-69
2021/01/13 08:05:38;;;;;;;14.13;9.05;;;;;;;-3.26;78.12;99090.97;1764353;80;21131;-69
2021/01/13 08:08:11;;;;;;;12.37;9.28;;;;;;;-3.27;78.12;99086.70;1765826;81;21113;-68
2021/01/13 08:10:43;;;;;;;16.42;10.00;;;;;;;-3.28;78.11;99086.30;1750961;81;21077;-71
2021/01/13 08:13:42;;;;;;;20.68;12.98;;;;;;;-3.27;78.13;99091.88;1736328;81;21389;-67
2021/01/13 08:16:58;;;;;;;11.75;8.43;;;;;;;-3.22;78.21;99093.33;1738681;81;21493;-69
2021/01/13 08:20:21;;;;;;;12.33;8.55;;;;;;;-3.13;78.19;99097.71;1761233;81;21132;-67
2021/01/13 08:22:42;;;;;;;12.98;7.90;;;;;;;-3.14;78.15;99094.30;1741593;81;21077;-67
2021/01/13 08:25:18;;;;;;;11.97;7.92;;;;;;;-3.08;78.04;99095.33;1718635;82;21641;-68
2021/01/13 08:27:42;;;;;;;10.08;7.22;;;;;;;-3.10;77.95;99091.95;1752823;81;22536;-66
2021/01/13 08:30:12;;;;;;;12.20;8.23;;;;;;;-3.14;77.89;99093.00;1679685;83;20942;-67
2021/01/13 08:32:41;;;;;;;11.88;8.78;;;;;;;-3.13;77.95;99088.22;1749091;79;21354;-66
2021/01/13 08:35:11;;;;;;;11.48;8.35;;;;;;;-3.07;77.95;99092.29;1806631;79;21050;-68
2021/01/13 08:37:40;;;;;;;12.25;8.08;;;;;;;-3.04;77.94;99089.10;1775819;79;23053;-68
2021/01/13 08:40:28;;;;;;;11.53;7.70;;;;;;;-2.99;77.92;99089.75;1811805;79;21097;-67
2021/01/13 08:43:07;;;;;;;13.10;8.38;;;;;;;-2.94;77.82;99089.53;1806662;79;21097;-68
2021/01/13 08:45:41;;;;;;;11.00;7.72;;;;;;;-2.99;77.68;99083.72;1799474;79;21106;-69
2021/01/13 08:48:17;;;;;;;11.60;7.67;;;;;;;-3.01;77.71;99069.58;1762760;81;21496;-68
2021/01/13 08:51:09;;;;;;;10.85;7.53;;;;;;;-3.04;77.75;99068.44;1754181;81;22039;-67
2021/01/13 08:53:38;;;;;;;9.33;7.20;;;;;;;-3.02;77.75;99055.00;1765767;81;21093;-68
2021/01/13 08:56:07;;;;;;;10.05;7.65;;;;;;;-3.01;77.69;99046.34;1759420;81;21097;-69
2021/01/13 08:58:36;;;;;;;9.90;5.80;;;;;;;-3.03;77.72;99052.03;1761724;81;21153;-69
2021/01/13 09:01:10;;;;;;;8.95;6.78;;;;;;;-2.97;77.82;99046.59;1749700;80;21141;-68
2021/01/13 09:03:41;;;;;;;10.25;7.42;;;;;;;-2.94;77.80;99046.45;1755787;81;21470;-67
2021/01/13 09:06:22;;;;;;;9.33;6.40;;;;;;;-2.94;77.56;99034.82;1754547;81;21240;-67
2021/01/13 09:08:53;;;;;;;11.25;8.18;;;;;;;-2.95;77.56;99028.44;1740292;81;21109;-69
2021/01/13 09:11:36;;;;;;;27.85;14.90;;;;;;;-2.94;77.60;99027.08;1765841;81;21588;-69
2021/01/13 09:14:24;;;;;;;15.20;8.65;;;;;;;-2.92;77.62;99020.08;1760038;81;21128;-69
2021/01/13 09:16:54;;;;;;;12.50;7.95;;;;;;;-2.87;77.67;99031.97;1764768;81;22963;-69
2021/01/13 09:19:34;;;;;;;10.53;7.12;;;;;;;-2.85;77.65;99023.69;1749764;81;20955;-69
2021/01/13 09:22:08;;;;;;;14.33;9.53;;;;;;;-2.82;77.66;99018.37;1740905;81;21078;-69
2021/01/13 09:24:41;;;;;;;16.75;10.50;;;;;;;-2.80;77.58;99015.25;1735373;82;21157;-68
2021/01/13 09:27:12;;;;;;;23.55;11.78;;;;;;;-2.74;77.69;99013.23;1755151;81;21117;-69
2021/01/13 09:29:53;;;;;;;24.98;14.05;;;;;;;-2.71;77.61;98998.02;1741519;81;22038;-70
2021/01/13 09:32:21;;;;;;;12.00;7.30;;;;;;;-2.66;77.53;99005.95;1752626;81;21150;-69
2021/01/13 09:34:53;;;;;;;23.75;14.85;;;;;;;-2.68;77.35;98990.98;1748100;81;21058;-68
2021/01/13 09:37:22;;;;;;;9.45;7.55;;;;;;;-2.65;77.37;98979.66;1750125;81;21083;-68
2021/01/13 09:40:02;;;;;;;20.97;10.30;;;;;;;-2.60;77.32;98969.95;1719458;81;21101;-67
2021/01/13 09:42:41;;;;;;;23.60;11.18;;;;;;;-2.60;77.28;98971.23;1760058;81;21848;-67
2021/01/13 09:45:10;;;;;;;15.45;7.78;;;;;;;-2.51;77.29;98978.55;1740151;81;21497;-66
2021/01/13 09:47:38;;;;;;;11.30;6.62;;;;;;;-2.47;77.15;98965.01;1746568;81;21479;-68
2021/01/13 09:50:11;;;;;;;14.80;7.83;;;;;;;-2.48;76.95;98967.22;1757987;81;22695;-67
2021/01/13 09:55:21;;;;;;;13.90;7.47;;;;;;;-2.41;76.67;98947.45;1883749;74;27198;-68
2021/01/13 09:57:49;;;;;;;10.75;7.25;;;;;;;-2.44;76.53;98946.75;1818528;77;21035;-66
2021/01/13 10:00:19;;;;;;;23.77;12.75;;;;;;;-2.48;76.22;98944.78;1817051;77;22047;-69
2021/01/13 10:02:48;;;;;;;10.75;7.25;;;;;;;-2.56;76.06;98946.91;1834077;77;21542;-68
2021/01/13 10:05:18;;;;;;;10.95;7.45;;;;;;;-2.61;76.05;98938.52;1816556;78;21557;-72
2021/01/13 10:07:46;;;;;;;11.48;6.90;;;;;;;-2.57;76.06;98932.30;1808667;77;21131;-69
2021/01/13 10:10:16;;;;;;;9.80;5.67;;;;;;;-2.57;75.91;98939.23;1810805;78;21575;-66
2021/01/13 10:12:49;;;;;;;11.35;6.90;;;;;;;-2.58;75.93;98935.80;1750848;79;22044;-66
2021/01/13 10:15:19;;;;;;;15.13;10.40;;;;;;;-2.57;75.75;98936.19;1836143;76;21079;-67
2021/01/13 10:17:48;;;;;;;17.17;10.32;;;;;;;-2.58;75.77;98929.34;1851621;77;21485;-67
2021/01/13 10:20:21;;;;;;;29.40;15.98;;;;;;;-2.52;75.68;98928.19;1794612;79;21134;-66
2021/01/13 10:22:49;;;;;;;14.95;8.58;;;;;;;-2.51;75.56;98933.73;1788293;78;21038;-66
2021/01/13 10:25:29;;;;;;;8.15;6.37;;;;;;;-2.53;75.17;98929.94;1779062;79;24182;-66
2021/01/13 10:27:59;;;;;;;7.75;5.65;;;;;;;-2.64;75.11;98920.59;1805067;79;21188;-68
2021/01/13 10:30:29;;;;;;;17.40;10.28;;;;;;;-2.66;75.08;98918.08;1793795;78;21478;-68
2021/01/13 10:32:57;;;;;;;31.93;18.05;;;;;;;-2.72;75.00;98909.33;1792994;79;21043;-67
2021/01/13 10:35:38;;;;;;;29.48;17.32;;;;;;;-2.70;75.02;98901.49;1801566;78;21095;-66
2021/01/13 10:38:18;;;;;;;26.93;16.05;;;;;;;-2.64;75.01;98897.33;1889352;74;27234;-65
2021/01/13 10:40:47;;;;;;;11.18;6.67;;;;;;;-2.62;75.09;98895.04;1827659;77;21644;-66
2021/01/13 10:43:14;;;;;;;13.10;8.65;;;;;;;-2.63;74.92;98896.41;1845605;77;21880;-66
2021/01/13 10:45:43;;;;;;;13.20;8.00;;;;;;;-2.64;74.95;98885.23;1789625;77;21108;-67
2021/01/13 10:48:12;;;;;;;12.47;7.87;;;;;;;-2.64;74.82;98883.11;1816633;77;21044;-65
2021/01/13 10:50:40;;;;;;;65.03;36.33;;;;;;;-2.65;74.71;98878.86;1792668;77;21059;-66
2021/01/13 10:53:08;;;;;;;42.88;23.75;;;;;;;-2.63;74.79;98873.98;1792625;77;21114;-64
2021/01/13 10:55:36;;;;;;;28.85;19.35;;;;;;;-2.57;74.80;98868.98;1833027;77;22113;-64
2021/01/13 10:58:04;;;;;;;14.18;9.28;;;;;;;-2.53;74.68;98865.77;1807545;77;21195;-65
2021/01/13 11:00:34;;;;;;;21.95;13.18;;;;;;;-2.57;74.44;98861.69;1843723;77;21063;-64
2021/01/13 11:03:02;;;;;;;27.37;14.68;;;;;;;-2.67;74.29;98858.72;1817550;77;21137;-66
2021/01/13 11:05:38;;;;;;;20.90;12.23;;;;;;;-2.69;74.17;98861.84;1835310;77;21060;-66
2021/01/13 11:08:06;;;;;;;10.82;6.87;;;;;;;-2.75;74.08;98852.63;1828000;77;22036;-66
2021/01/13 11:10:36;;;;;;;14.70;7.03;;;;;;;-2.80;74.03;98846.84;1834318;77;21067;-66
2021/01/13 11:13:08;;;;;;;34.10;17.20;;;;;;;-2.84;74.11;98846.62;1817268;77;21483;-66
2021/01/13 11:15:38;;;;;;;23.92;12.23;;;;;;;-2.87;74.18;98845.50;1817791;77;21534;-67
2021/01/13 11:18:10;;;;;;;9.88;6.37;;;;;;;-2.85;74.18;98850.58;1804548;79;21154;-67
2021/01/13 11:20:38;;;;;;;18.62;12.75;;;;;;;-2.85;74.11;98840.25;1776574;78;22110;-66
2021/01/13 11:23:08;;;;;;;8.23;5.83;;;;;;;-2.85;74.13;98845.41;1762568;79;21030;-65
2021/01/13 11:25:40;;;;;;;8.45;6.40;;;;;;;-2.84;74.09;98841.92;1786485;79;21564;-66
2021/01/13 11:28:13;;;;;;;7.72;5.42;;;;;;;-2.84;74.18;98829.83;1775156;80;21149;-66
2021/01/13 11:30:47;;;;;;;6.50;4.80;;;;;;;-2.85;74.13;98827.33;1775181;80;21050;-67
2021/01/13 11:33:17;;;;;;;7.33;5.55;;;;;;;-2.87;74.14;98824.83;1775153;80;22056;-66
2021/01/13 11:35:48;;;;;;;6.20;4.53;;;;;;;-2.92;74.14;98826.79;1775099;80;21461;-66
2021/01/13 11:38:48;;;;;;;9.08;6.45;;;;;;;-2.92;74.16;98828.08;1736625;82;21169;-66
2021/01/13 11:41:56;;;;;;;17.10;10.80;;;;;;;-2.92;74.12;98824.20;1737519;82;21494;-71
2021/01/13 11:45:14;;;;;;;9.05;6.03;;;;;;;-2.93;74.18;98828.53;1740984;81;21053;-68
2021/01/13 11:47:48;;;;;;;19.85;9.63;;;;;;;-2.95;74.13;98823.07;1729661;82;22046;-66
2021/01/13 11:50:22;;;;;;;18.85;10.23;;;;;;;-3.01;74.06;98816.45;1753850;81;21153;-67
2021/01/13 11:52:53;;;;;;;;;;;;;;;-3.03;74.06;98823.44;1738417;82;21150;-65
2021/01/13 11:55:28;;;;;;;58.38;23.80;;;;;;;-3.01;74.05;98814.32;1729941;81;20452;-65
2021/01/13 11:57:57;;;;;;;52.45;21.65;;;;;;;-3.02;73.97;98816.07;1724271;83;21138;-65
2021/01/13 12:00:28;;;;;;;19.70;10.55;;;;;;;-3.02;73.88;98810.07;1760038;81;22048;-66